Aérodrome :
LOGIN :

S'inscrire | Disclaimer

   EN    FR    IT 

 










Légende :    VFR   VFR Marginal   IFR   IFR Intensif   IFR Très Intensif
Visi : 
Plafond : 
>= 8 km
>= 3000ft
5 à 8 km
1000 à 3000 ft
1500m à 5 km
500 à 1000 ft
800 à 1500m
200 à 500 ft
< 800m
< 200 ft
Symboles :   Orages  Brouillard  Fortes neiges  Fortes précipitations  Vent > 20 kt
SIGMETs :   Divers  Orages  Givrage  Turbulence  Onde Orograph.  Cendres Volcan.






- Altitude de l'aérodrome : 458 ft


LFSI - St-Dizier

DERNIER METAR :
  • 230300Z AUTO 08007KT 050V110 7000 OVC009 13/11 Q1016

METARs EXPIRÉS :
  • 230230Z AUTO 05006KT 7000 OVC009 13/11 Q1016
  • 230200Z AUTO 06005KT 8000 OVC009 13/11 Q1016
  • 230130Z AUTO 08004KT 010V110 9999 OVC009 12/10 Q1017
  • 230100Z AUTO VRB02KT 9999 OVC009 11/10 Q1017
  • 230030Z AUTO 03003KT 9999 OVC009 11/10 Q1017

TAF TAF LFSI
Valide du 23 à 03h jusqu'au 24 à 03h UTC


230200Z 2303/2403 VRB02KT 8000 BKN006
PROB30
TEMPO 2303/2307 3000 BR BKN003 BKN005
PROB30
TEMPO 2303/2307 0800 FG VV///
BECMG 2308/2310 SCT020



MET'MAP, la Météo Aéronautique d'un coup d'oeil ! - Copyright ORBIFLY Décembre 2007 - Disclaimer

ORBIFLY MET'MAP TEAM :

Programmation & Développement : Alexandra Zaïnal
Conception & Développement : Baudouin d'Aumeries
Co-Programmation & Développement : Marc-Olivier Méhu
Soutien technique & logistique : Manuel Goepfert

Contact : metmap@orbifly.com




SOURCES & CREDITS :

   NOAA